sensor_id;sensor_type;location;lat;lon;timestamp;pressure;altitude;pressure_sealevel;temperature;humidity
69855;BME280;57146;48.140;16.304;2023-02-19T00:00:26;99500.88;;;12.08;65.61
69855;BME280;57146;48.140;16.304;2023-02-19T00:02:53;99493.75;;;12.09;65.40
69855;BME280;57146;48.140;16.304;2023-02-19T00:05:22;99506.66;;;12.10;65.60
69855;BME280;57146;48.140;16.304;2023-02-19T00:07:49;99513.63;;;12.06;66.23
69855;BME280;57146;48.140;16.304;2023-02-19T00:10:16;99512.22;;;12.09;65.75
69855;BME280;57146;48.140;16.304;2023-02-19T00:12:46;99501.97;;;12.07;66.15
69855;BME280;57146;48.140;16.304;2023-02-19T00:15:12;99505.97;;;12.05;65.77
69855;BME280;57146;48.140;16.304;2023-02-19T00:17:39;99499.94;;;12.04;66.14
69855;BME280;57146;48.140;16.304;2023-02-19T00:20:08;99506.91;;;12.00;66.19
69855;BME280;57146;48.140;16.304;2023-02-19T00:22:36;99508.94;;;12.03;66.45
69855;BME280;57146;48.140;16.304;2023-02-19T00:25:03;99513.13;;;12.04;66.31
69855;BME280;57146;48.140;16.304;2023-02-19T00:27:32;99522.31;;;12.07;66.39
69855;BME280;57146;48.140;16.304;2023-02-19T00:29:59;99517.91;;;12.02;66.17
69855;BME280;57146;48.140;16.304;2023-02-19T00:32:27;99520.72;;;12.06;66.36
69855;BME280;57146;48.140;16.304;2023-02-19T00:34:54;99533.47;;;12.04;66.36
69855;BME280;57146;48.140;16.304;2023-02-19T00:37:20;99528.00;;;12.00;66.95
69855;BME280;57146;48.140;16.304;2023-02-19T00:39:48;99535.75;;;11.96;67.10
69855;BME280;57146;48.140;16.304;2023-02-19T00:42:15;99532.34;;;11.96;67.34
69855;BME280;57146;48.140;16.304;2023-02-19T00:44:42;99536.84;;;11.95;67.42
69855;BME280;57146;48.140;16.304;2023-02-19T00:47:11;99548.28;;;11.91;68.41
69855;BME280;57146;48.140;16.304;2023-02-19T00:49:38;99532.25;;;11.87;68.60
69855;BME280;57146;48.140;16.304;2023-02-19T00:52:05;99537.16;;;11.80;68.97
69855;BME280;57146;48.140;16.304;2023-02-19T00:54:36;99538.56;;;11.78;69.24
69855;BME280;57146;48.140;16.304;2023-02-19T00:57:06;99533.88;;;11.74;69.48
69855;BME280;57146;48.140;16.304;2023-02-19T01:00:00;99537.41;;;11.70;70.12
69855;BME280;57146;48.140;16.304;2023-02-19T01:02:51;99537.56;;;11.73;70.30
69855;BME280;57146;48.140;16.304;2023-02-19T01:05:18;99529.19;;;11.71;70.70
69855;BME280;57146;48.140;16.304;2023-02-19T01:07:45;99535.19;;;11.63;71.03
69855;BME280;57146;48.140;16.304;2023-02-19T01:10:36;99527.88;;;11.60;70.90
69855;BME280;57146;48.140;16.304;2023-02-19T01:13:06;99523.69;;;11.59;71.02
69855;BME280;57146;48.140;16.304;2023-02-19T01:15:34;99540.28;;;11.60;71.54
69855;BME280;57146;48.140;16.304;2023-02-19T01:18:01;99529.84;;;11.55;71.76
69855;BME280;57146;48.140;16.304;2023-02-19T01:20:31;99527.53;;;11.53;71.82
69855;BME280;57146;48.140;16.304;2023-02-19T01:22:58;99516.97;;;11.53;71.59
69855;BME280;57146;48.140;16.304;2023-02-19T01:25:29;99520.41;;;11.54;71.54
69855;BME280;57146;48.140;16.304;2023-02-19T01:27:56;99518.84;;;11.53;71.72
69855;BME280;57146;48.140;16.304;2023-02-19T01:30:22;99513.56;;;11.53;71.94
69855;BME280;57146;48.140;16.304;2023-02-19T01:32:50;99521.00;;;11.50;72.08
69855;BME280;57146;48.140;16.304;2023-02-19T01:35:17;99514.44;;;11.48;72.50
69855;BME280;57146;48.140;16.304;2023-02-19T01:37:44;99510.25;;;11.47;72.64
69855;BME280;57146;48.140;16.304;2023-02-19T01:40:13;99509.00;;;11.44;72.56
69855;BME280;57146;48.140;16.304;2023-02-19T01:42:43;99504.63;;;11.40;73.10
69855;BME280;57146;48.140;16.304;2023-02-19T01:45:42;99514.69;;;11.38;73.24
69855;BME280;57146;48.140;16.304;2023-02-19T01:48:17;99505.72;;;11.39;73.43
69855;BME280;57146;48.140;16.304;2023-02-19T01:50:53;99510.97;;;11.39;73.06
69855;BME280;57146;48.140;16.304;2023-02-19T01:53:55;99497.13;;;11.33;73.87
69855;BME280;57146;48.140;16.304;2023-02-19T01:56:25;99495.41;;;11.29;73.73
69855;BME280;57146;48.140;16.304;2023-02-19T01:58:53;99496.19;;;11.29;73.73
69855;BME280;57146;48.140;16.304;2023-02-19T02:01:21;99492.03;;;11.37;73.89
69855;BME280;57146;48.140;16.304;2023-02-19T02:03:49;99493.72;;;11.33;73.92
69855;BME280;57146;48.140;16.304;2023-02-19T02:06:23;99489.03;;;11.30;74.43
69855;BME280;57146;48.140;16.304;2023-02-19T02:08:54;99480.66;;;11.27;74.31
69855;BME280;57146;48.140;16.304;2023-02-19T02:11:28;99487.00;;;11.26;74.23
69855;BME280;57146;48.140;16.304;2023-02-19T02:13:57;99482.22;;;11.29;74.18
69855;BME280;57146;48.140;16.304;2023-02-19T02:16:29;99463.88;;;11.23;74.66
69855;BME280;57146;48.140;16.304;2023-02-19T02:19:10;99468.31;;;11.14;75.34
69855;BME280;57146;48.140;16.304;2023-02-19T02:21:55;99467.09;;;11.20;74.97
69855;BME280;57146;48.140;16.304;2023-02-19T02:27:29;99470.94;;;11.14;75.31
69855;BME280;57146;48.140;16.304;2023-02-19T02:35:18;99469.69;;;11.12;75.44
69855;BME280;57146;48.140;16.304;2023-02-19T02:37:49;99464.41;;;11.12;75.76
69855;BME280;57146;48.140;16.304;2023-02-19T02:40:24;99459.47;;;11.10;75.85
69855;BME280;57146;48.140;16.304;2023-02-19T02:42:51;99472.72;;;11.05;77.05
69855;BME280;57146;48.140;16.304;2023-02-19T02:47:50;99465.03;;;10.95;78.20
69855;BME280;57146;48.140;16.304;2023-02-19T02:50:22;99458.94;;;10.86;80.05
69855;BME280;57146;48.140;16.304;2023-02-19T02:52:56;99462.63;;;10.85;80.57
69855;BME280;57146;48.140;16.304;2023-02-19T02:55:25;99455.94;;;10.78;80.75
69855;BME280;57146;48.140;16.304;2023-02-19T02:58:26;99450.84;;;10.82;80.35
69855;BME280;57146;48.140;16.304;2023-02-19T03:01:00;99454.34;;;10.77;80.86
69855;BME280;57146;48.140;16.304;2023-02-19T03:04:03;99450.66;;;10.78;80.88
69855;BME280;57146;48.140;16.304;2023-02-19T03:06:34;99452.13;;;10.71;81.33
69855;BME280;57146;48.140;16.304;2023-02-19T03:09:16;99452.41;;;10.69;81.23
69855;BME280;57146;48.140;16.304;2023-02-19T03:11:48;99447.75;;;10.66;81.65
69855;BME280;57146;48.140;16.304;2023-02-19T03:14:26;99445.13;;;10.66;81.59
69855;BME280;57146;48.140;16.304;2023-02-19T03:17:12;99447.28;;;10.64;82.05
69855;BME280;57146;48.140;16.304;2023-02-19T03:19:46;99444.16;;;10.62;82.36
69855;BME280;57146;48.140;16.304;2023-02-19T03:22:19;99444.25;;;10.57;83.30
69855;BME280;57146;48.140;16.304;2023-02-19T03:24:58;99439.41;;;10.50;84.16
69855;BME280;57146;48.140;16.304;2023-02-19T03:27:28;99448.56;;;10.53;83.45
69855;BME280;57146;48.140;16.304;2023-02-19T03:30:02;99436.25;;;10.48;83.77
69855;BME280;57146;48.140;16.304;2023-02-19T03:32:43;99446.78;;;10.48;83.74
69855;BME280;57146;48.140;16.304;2023-02-19T03:35:44;99438.63;;;10.50;83.42
69855;BME280;57146;48.140;16.304;2023-02-19T03:38:19;99440.16;;;10.51;83.18
69855;BME280;57146;48.140;16.304;2023-02-19T03:41:28;99440.16;;;10.51;83.06
69855;BME280;57146;48.140;16.304;2023-02-19T03:44:09;99443.75;;;10.55;82.80
69855;BME280;57146;48.140;16.304;2023-02-19T03:49:17;99451.00;;;10.49;82.95
69855;BME280;57146;48.140;16.304;2023-02-19T03:52:15;99453.63;;;10.49;82.87
69855;BME280;57146;48.140;16.304;2023-02-19T03:55:03;99438.25;;;10.43;83.32
69855;BME280;57146;48.140;16.304;2023-02-19T04:05:55;99434.81;;;10.42;83.60
69855;BME280;57146;48.140;16.304;2023-02-19T04:08:26;99441.91;;;10.42;83.79
69855;BME280;57146;48.140;16.304;2023-02-19T04:10:59;99440.94;;;10.38;84.08
69855;BME280;57146;48.140;16.304;2023-02-19T04:13:35;99439.28;;;10.42;83.77
69855;BME280;57146;48.140;16.304;2023-02-19T04:16:10;99443.38;;;10.48;83.49
69855;BME280;57146;48.140;16.304;2023-02-19T04:18:42;99442.41;;;10.44;83.51
69855;BME280;57146;48.140;16.304;2023-02-19T04:21:10;99446.72;;;10.40;83.91
69855;BME280;57146;48.140;16.304;2023-02-19T04:24:18;99442.13;;;10.45;83.74
69855;BME280;57146;48.140;16.304;2023-02-19T04:26:47;99451.97;;;10.40;83.79
69855;BME280;57146;48.140;16.304;2023-02-19T04:29:14;99431.19;;;10.38;84.19
69855;BME280;57146;48.140;16.304;2023-02-19T04:31:41;99448.84;;;10.38;84.36
69855;BME280;57146;48.140;16.304;2023-02-19T04:34:08;99440.47;;;10.36;84.43
69855;BME280;57146;48.140;16.304;2023-02-19T04:36:35;99428.00;;;10.27;84.65
69855;BME280;57146;48.140;16.304;2023-02-19T04:39:02;99426.53;;;10.35;84.24
69855;BME280;57146;48.140;16.304;2023-02-19T04:41:29;99418.75;;;10.30;84.85
69855;BME280;57146;48.140;16.304;2023-02-19T04:43:56;99427.31;;;10.22;86.62
69855;BME280;57146;48.140;16.304;2023-02-19T04:46:23;99422.63;;;10.19;87.05
69855;BME280;57146;48.140;16.304;2023-02-19T04:48:50;99417.94;;;10.16;87.80
69855;BME280;57146;48.140;16.304;2023-02-19T04:51:17;99411.91;;;10.15;87.84
69855;BME280;57146;48.140;16.304;2023-02-19T04:53:44;99411.91;;;10.15;87.52
69855;BME280;57146;48.140;16.304;2023-02-19T04:56:13;99409.28;;;10.15;87.79
69855;BME280;57146;48.140;16.304;2023-02-19T04:58:41;99417.75;;;10.12;88.02
69855;BME280;57146;48.140;16.304;2023-02-19T05:01:09;99408.97;;;10.17;87.09
69855;BME280;57146;48.140;16.304;2023-02-19T05:03:38;99398.94;;;10.19;87.04
69855;BME280;57146;48.140;16.304;2023-02-19T05:06:07;99397.66;;;10.16;87.31
69855;BME280;57146;48.140;16.304;2023-02-19T05:08:59;99388.88;;;10.21;86.23
69855;BME280;57146;48.140;16.304;2023-02-19T05:11:26;99390.94;;;10.24;85.54
69855;BME280;57146;48.140;16.304;2023-02-19T05:13:54;99390.00;;;10.34;84.66
69855;BME280;57146;48.140;16.304;2023-02-19T05:16:21;99381.00;;;10.35;85.06
69855;BME280;57146;48.140;16.304;2023-02-19T05:18:48;99378.97;;;10.31;85.40
69855;BME280;57146;48.140;16.304;2023-02-19T05:21:15;99384.91;;;10.37;85.12
69855;BME280;57146;48.140;16.304;2023-02-19T05:23:42;99367.41;;;10.33;85.62
69855;BME280;57146;48.140;16.304;2023-02-19T05:26:15;99373.25;;;10.29;86.18
69855;BME280;57146;48.140;16.304;2023-02-19T05:28:47;99353.28;;;10.28;85.00
69855;BME280;57146;48.140;16.304;2023-02-19T05:31:14;99363.00;;;10.28;84.89
69855;BME280;57146;48.140;16.304;2023-02-19T05:33:42;99349.44;;;10.35;84.32
69855;BME280;57146;48.140;16.304;2023-02-19T05:36:12;99340.78;;;10.34;84.16
69855;BME280;57146;48.140;16.304;2023-02-19T05:38:40;99348.00;;;10.28;84.61
69855;BME280;57146;48.140;16.304;2023-02-19T05:41:16;99346.81;;;10.35;83.74
69855;BME280;57146;48.140;16.304;2023-02-19T05:43:45;99335.31;;;10.30;84.00
69855;BME280;57146;48.140;16.304;2023-02-19T05:46:15;99333.97;;;10.33;84.02
69855;BME280;57146;48.140;16.304;2023-02-19T05:48:42;99333.56;;;10.40;83.01
69855;BME280;57146;48.140;16.304;2023-02-19T05:51:12;99321.69;;;10.28;84.20
69855;BME280;57146;48.140;16.304;2023-02-19T05:53:41;99321.50;;;10.25;84.83
69855;BME280;57146;48.140;16.304;2023-02-19T05:56:36;99324.03;;;10.30;84.06
69855;BME280;57146;48.140;16.304;2023-02-19T05:59:24;99318.84;;;10.25;84.95
69855;BME280;57146;48.140;16.304;2023-02-19T06:01:54;99324.63;;;10.27;84.65
69855;BME280;57146;48.140;16.304;2023-02-19T06:04:21;99311.38;;;10.32;83.93
69855;BME280;57146;48.140;16.304;2023-02-19T06:06:48;99305.31;;;10.31;83.96
69855;BME280;57146;48.140;16.304;2023-02-19T06:09:15;99313.50;;;10.30;84.62
69855;BME280;57146;48.140;16.304;2023-02-19T06:11:43;99309.97;;;10.35;84.25
69855;BME280;57146;48.140;16.304;2023-02-19T06:14:12;99313.59;;;10.25;84.53
69855;BME280;57146;48.140;16.304;2023-02-19T06:16:39;99308.25;;;10.30;83.85
69855;BME280;57146;48.140;16.304;2023-02-19T06:19:06;99301.44;;;10.29;83.29
69855;BME280;57146;48.140;16.304;2023-02-19T06:22:00;99313.81;;;10.28;82.82
69855;BME280;57146;48.140;16.304;2023-02-19T06:24:29;99321.41;;;10.30;83.00
69855;BME280;57146;48.140;16.304;2023-02-19T06:26:56;99325.84;;;10.43;81.52
69855;BME280;57146;48.140;16.304;2023-02-19T06:29:24;99326.03;;;10.47;80.69
69855;BME280;57146;48.140;16.304;2023-02-19T06:31:51;99322.91;;;10.45;81.21
69855;BME280;57146;48.140;16.304;2023-02-19T06:34:18;99327.59;;;10.48;80.74
69855;BME280;57146;48.140;16.304;2023-02-19T06:36:44;99329.75;;;10.46;80.59
69855;BME280;57146;48.140;16.304;2023-02-19T06:39:14;99325.13;;;10.51;79.84
69855;BME280;57146;48.140;16.304;2023-02-19T06:41:41;99326.78;;;10.61;79.56
69855;BME280;57146;48.140;16.304;2023-02-19T06:44:08;99331.81;;;10.71;78.01
69855;BME280;57146;48.140;16.304;2023-02-19T06:46:35;99341.84;;;10.69;78.42
69855;BME280;57146;48.140;16.304;2023-02-19T06:49:06;99334.44;;;10.71;77.85
69855;BME280;57146;48.140;16.304;2023-02-19T06:51:36;99327.78;;;10.74;77.73
69855;BME280;57146;48.140;16.304;2023-02-19T06:54:04;99320.72;;;10.83;76.61
69855;BME280;57146;48.140;16.304;2023-02-19T06:56:36;99317.00;;;10.84;76.76
69855;BME280;57146;48.140;16.304;2023-02-19T06:59:07;99351.06;;;10.81;77.42
69855;BME280;57146;48.140;16.304;2023-02-19T07:01:35;99331.28;;;10.83;76.68
69855;BME280;57146;48.140;16.304;2023-02-19T07:04:04;99332.53;;;10.86;76.32
69855;BME280;57146;48.140;16.304;2023-02-19T07:06:32;99328.81;;;10.87;76.38
69855;BME280;57146;48.140;16.304;2023-02-19T07:09:03;99337.31;;;10.84;76.82
69855;BME280;57146;48.140;16.304;2023-02-19T07:11:33;99327.13;;;10.91;76.07
69855;BME280;57146;48.140;16.304;2023-02-19T07:14:02;99329.31;;;10.89;76.20
69855;BME280;57146;48.140;16.304;2023-02-19T07:16:29;99317.00;;;10.84;76.38
69855;BME280;57146;48.140;16.304;2023-02-19T07:18:57;99347.44;;;10.90;76.02
69855;BME280;57146;48.140;16.304;2023-02-19T07:21:30;99347.84;;;10.84;76.23
69855;BME280;57146;48.140;16.304;2023-02-19T07:24:07;99366.63;;;10.91;75.28
69855;BME280;57146;48.140;16.304;2023-02-19T07:26:34;99354.84;;;10.88;75.83
69855;BME280;57146;48.140;16.304;2023-02-19T07:29:01;99333.31;;;10.86;75.72
69855;BME280;57146;48.140;16.304;2023-02-19T07:31:28;99329.16;;;10.94;75.17
69855;BME280;57146;48.140;16.304;2023-02-19T07:33:55;99325.75;;;10.93;74.62
69855;BME280;57146;48.140;16.304;2023-02-19T07:36:23;99319.38;;;10.86;75.47
69855;BME280;57146;48.140;16.304;2023-02-19T07:38:56;99328.44;;;10.79;76.01
69855;BME280;57146;48.140;16.304;2023-02-19T07:41:52;99321.16;;;10.76;76.35
69855;BME280;57146;48.140;16.304;2023-02-19T07:44:26;99324.28;;;10.78;76.34
69855;BME280;57146;48.140;16.304;2023-02-19T07:46:53;99319.28;;;10.77;76.43
69855;BME280;57146;48.140;16.304;2023-02-19T07:49:19;99313.44;;;10.80;75.89
69855;BME280;57146;48.140;16.304;2023-02-19T07:51:46;99323.19;;;10.79;76.16
69855;BME280;57146;48.140;16.304;2023-02-19T07:54:13;99321.03;;;10.82;76.61
69855;BME280;57146;48.140;16.304;2023-02-19T07:56:40;99320.72;;;10.83;76.60
69855;BME280;57146;48.140;16.304;2023-02-19T07:59:07;99319.66;;;10.84;76.51
69855;BME280;57146;48.140;16.304;2023-02-19T08:01:34;99329.63;;;10.73;77.17
69855;BME280;57146;48.140;16.304;2023-02-19T08:04:01;99312.66;;;10.79;76.78
69855;BME280;57146;48.140;16.304;2023-02-19T08:06:28;99336.03;;;10.81;76.46
69855;BME280;57146;48.140;16.304;2023-02-19T08:08:55;99336.34;;;10.79;76.55
69855;BME280;57146;48.140;16.304;2023-02-19T08:11:22;99345.97;;;10.84;76.48
69855;BME280;57146;48.140;16.304;2023-02-19T08:13:50;99346.28;;;10.83;77.25
69855;BME280;57146;48.140;16.304;2023-02-19T08:16:18;99347.19;;;10.78;77.44
69855;BME280;57146;48.140;16.304;2023-02-19T08:19:02;99385.69;;;10.74;76.75
69855;BME280;57146;48.140;16.304;2023-02-19T08:21:33;99383.97;;;10.69;78.25
69855;BME280;57146;48.140;16.304;2023-02-19T08:24:00;99364.72;;;10.60;81.19
69855;BME280;57146;48.140;16.304;2023-02-19T08:26:26;99375.81;;;10.57;80.47
69855;BME280;57146;48.140;16.304;2023-02-19T08:28:55;99372.50;;;10.51;80.96
69855;BME280;57146;48.140;16.304;2023-02-19T08:31:22;99376.03;;;10.47;81.04
69855;BME280;57146;48.140;16.304;2023-02-19T08:33:51;99366.88;;;10.44;80.75
69855;BME280;57146;48.140;16.304;2023-02-19T08:36:18;99374.59;;;10.41;82.05
69855;BME280;57146;48.140;16.304;2023-02-19T08:38:45;99362.94;;;10.55;79.81
69855;BME280;57146;48.140;16.304;2023-02-19T08:41:13;99366.72;;;10.63;79.23
69855;BME280;57146;48.140;16.304;2023-02-19T08:43:41;99358.81;;;10.63;78.96
69855;BME280;57146;48.140;16.304;2023-02-19T08:46:09;99353.94;;;10.70;79.63
69855;BME280;57146;48.140;16.304;2023-02-19T08:48:37;99371.66;;;10.78;79.26
69855;BME280;57146;48.140;16.304;2023-02-19T08:51:06;99359.31;;;10.88;77.27
69855;BME280;57146;48.140;16.304;2023-02-19T08:53:35;99364.53;;;11.01;76.63
69855;BME280;57146;48.140;16.304;2023-02-19T08:56:20;99351.44;;;11.10;76.01
69855;BME280;57146;48.140;16.304;2023-02-19T08:58:48;99365.75;;;11.18;75.35
69855;BME280;57146;48.140;16.304;2023-02-19T09:01:16;99366.38;;;11.23;75.45
69855;BME280;57146;48.140;16.304;2023-02-19T09:03:44;99372.00;;;11.31;73.92
69855;BME280;57146;48.140;16.304;2023-02-19T09:06:17;99386.22;;;11.21;74.71
69855;BME280;57146;48.140;16.304;2023-02-19T09:08:45;99395.56;;;11.05;76.87
69855;BME280;57146;48.140;16.304;2023-02-19T09:11:14;99393.72;;;10.69;81.35
69855;BME280;57146;48.140;16.304;2023-02-19T09:13:46;99398.66;;;10.48;81.90
69855;BME280;57146;48.140;16.304;2023-02-19T09:16:13;99399.81;;;10.42;84.78
69855;BME280;57146;48.140;16.304;2023-02-19T09:18:40;99385.63;;;10.29;84.25
69855;BME280;57146;48.140;16.304;2023-02-19T09:21:07;99390.47;;;10.22;85.83
69855;BME280;57146;48.140;16.304;2023-02-19T09:23:35;99399.72;;;10.19;85.24
69855;BME280;57146;48.140;16.304;2023-02-19T09:26:04;99390.75;;;10.20;84.77
69855;BME280;57146;48.140;16.304;2023-02-19T09:28:32;99396.91;;;10.16;85.85
69855;BME280;57146;48.140;16.304;2023-02-19T09:31:12;99402.34;;;10.19;84.10
69855;BME280;57146;48.140;16.304;2023-02-19T09:33:42;99382.66;;;10.17;84.82
69855;BME280;57146;48.140;16.304;2023-02-19T09:36:09;99370.47;;;10.21;84.70
69855;BME280;57146;48.140;16.304;2023-02-19T09:38:36;99374.91;;;10.25;84.50
69855;BME280;57146;48.140;16.304;2023-02-19T09:41:12;99370.19;;;10.22;84.97
69855;BME280;57146;48.140;16.304;2023-02-19T09:43:39;99355.38;;;10.40;84.32
69855;BME280;57146;48.140;16.304;2023-02-19T09:46:26;99361.63;;;10.44;84.54
69855;BME280;57146;48.140;16.304;2023-02-19T09:49:01;99367.06;;;10.48;83.70
69855;BME280;57146;48.140;16.304;2023-02-19T09:51:30;99355.34;;;10.54;82.49
69855;BME280;57146;48.140;16.304;2023-02-19T09:53:58;99337.72;;;10.54;82.16
69855;BME280;57146;48.140;16.304;2023-02-19T09:56:26;99340.53;;;10.58;82.50
69855;BME280;57146;48.140;16.304;2023-02-19T09:58:55;99345.97;;;10.62;81.63
69855;BME280;57146;48.140;16.304;2023-02-19T10:01:26;99343.53;;;10.65;79.96
69855;BME280;57146;48.140;16.304;2023-02-19T10:03:56;99356.09;;;10.68;80.85
69855;BME280;57146;48.140;16.304;2023-02-19T10:06:26;99345.75;;;10.72;80.65
69855;BME280;57146;48.140;16.304;2023-02-19T10:11:39;99360.28;;;10.92;76.90
69855;BME280;57146;48.140;16.304;2023-02-19T10:14:14;99336.47;;;10.97;76.63
69855;BME280;57146;48.140;16.304;2023-02-19T10:16:44;99332.66;;;11.03;75.75
69855;BME280;57146;48.140;16.304;2023-02-19T10:19:14;99339.84;;;11.20;76.08
69855;BME280;57146;48.140;16.304;2023-02-19T10:21:42;99337.53;;;11.18;74.17
69855;BME280;57146;48.140;16.304;2023-02-19T10:24:19;99348.88;;;11.27;73.52
69855;BME280;57146;48.140;16.304;2023-02-19T10:26:48;99368.13;;;11.28;72.11
69855;BME280;57146;48.140;16.304;2023-02-19T10:29:16;99350.63;;;11.32;72.69
69855;BME280;57146;48.140;16.304;2023-02-19T10:31:43;99364.88;;;11.31;71.87
69855;BME280;57146;48.140;16.304;2023-02-19T10:34:19;99350.81;;;11.36;70.36
69855;BME280;57146;48.140;16.304;2023-02-19T10:36:49;99361.97;;;11.41;71.33
69855;BME280;57146;48.140;16.304;2023-02-19T10:42:02;99370.75;;;11.59;69.76
69855;BME280;57146;48.140;16.304;2023-02-19T10:44:41;99368.50;;;11.75;69.10
69855;BME280;57146;48.140;16.304;2023-02-19T10:47:34;99378.28;;;11.74;67.74
69855;BME280;57146;48.140;16.304;2023-02-19T10:50:02;99377.50;;;11.74;67.84
69855;BME280;57146;48.140;16.304;2023-02-19T10:52:54;99387.56;;;11.72;67.31
69855;BME280;57146;48.140;16.304;2023-02-19T10:55:33;99377.53;;;11.83;67.66
69855;BME280;57146;48.140;16.304;2023-02-19T10:58:25;99386.75;;;11.85;66.81
69855;BME280;57146;48.140;16.304;2023-02-19T11:01:29;99390.94;;;11.95;66.66
69855;BME280;57146;48.140;16.304;2023-02-19T11:04:21;99384.44;;;12.01;67.01
69855;BME280;57146;48.140;16.304;2023-02-19T11:06:49;99390.94;;;11.95;67.06
69855;BME280;57146;48.140;16.304;2023-02-19T11:11:53;99383.91;;;11.82;67.88
69855;BME280;57146;48.140;16.304;2023-02-19T11:14:24;99377.50;;;11.74;67.92
69855;BME280;57146;48.140;16.304;2023-02-19T11:16:56;99380.75;;;11.71;67.78
69855;BME280;57146;48.140;16.304;2023-02-19T11:19:31;99377.97;;;11.76;68.62
69855;BME280;57146;48.140;16.304;2023-02-19T11:22:01;99373.63;;;11.80;67.01
69855;BME280;57146;48.140;16.304;2023-02-19T11:24:35;99383.13;;;11.81;67.00
69855;BME280;57146;48.140;16.304;2023-02-19T11:27:12;99360.38;;;11.94;66.99
69855;BME280;57146;48.140;16.304;2023-02-19T11:29:42;99378.69;;;11.90;67.50
69855;BME280;57146;48.140;16.304;2023-02-19T11:32:22;99369.38;;;11.93;66.63
69855;BME280;57146;48.140;16.304;2023-02-19T11:34:50;99343.63;;;11.98;66.57
69855;BME280;57146;48.140;16.304;2023-02-19T11:37:19;99373.31;;;12.13;66.74
69855;BME280;57146;48.140;16.304;2023-02-19T11:39:51;99373.00;;;12.14;65.41
69855;BME280;57146;48.140;16.304;2023-02-19T11:42:26;99365.25;;;12.18;67.22
69855;BME280;57146;48.140;16.304;2023-02-19T11:45:12;99383.13;;;12.21;66.16
69855;BME280;57146;48.140;16.304;2023-02-19T11:53:44;99381.66;;;11.97;66.25
69855;BME280;57146;48.140;16.304;2023-02-19T11:56:21;99378.22;;;11.97;66.37
69855;BME280;57146;48.140;16.304;2023-02-19T12:12:17;99383.34;;;11.62;67.80
69855;BME280;57146;48.140;16.304;2023-02-19T12:15:03;99382.03;;;11.51;67.85
69855;BME280;57146;48.140;16.304;2023-02-19T12:17:42;99380.75;;;11.40;67.85
69855;BME280;57146;48.140;16.304;2023-02-19T12:34:34;99388.69;;;11.80;67.07
69855;BME280;57146;48.140;16.304;2023-02-19T12:37:18;99388.94;;;11.69;65.71
69855;BME280;57146;48.140;16.304;2023-02-19T12:40:13;99378.28;;;11.74;64.37
69855;BME280;57146;48.140;16.304;2023-02-19T12:45:34;99405.72;;;11.73;65.22
69855;BME280;57146;48.140;16.304;2023-02-19T12:50:34;99372.97;;;11.66;66.90
69855;BME280;57146;48.140;16.304;2023-02-19T12:53:30;99383.13;;;11.50;68.02
69855;BME280;57146;48.140;16.304;2023-02-19T12:56:00;99388.75;;;11.57;68.78
69855;BME280;57146;48.140;16.304;2023-02-19T12:58:50;99372.97;;;11.66;67.60
69855;BME280;57146;48.140;16.304;2023-02-19T13:01:26;99385.28;;;11.79;67.36
69855;BME280;57146;48.140;16.304;2023-02-19T13:06:49;99377.97;;;12.07;65.09
69855;BME280;57146;48.140;16.304;2023-02-19T13:09:27;99378.25;;;12.06;64.38
69855;BME280;57146;48.140;16.304;2023-02-19T13:12:27;99371.00;;;12.20;64.44
69855;BME280;57146;48.140;16.304;2023-02-19T13:15:01;99373.19;;;12.18;62.64
69855;BME280;57146;48.140;16.304;2023-02-19T13:17:43;99373.78;;;12.06;62.63
69855;BME280;57146;48.140;16.304;2023-02-19T13:20:33;99375.00;;;12.09;61.68
69855;BME280;57146;48.140;16.304;2023-02-19T13:23:22;99399.19;;;12.02;61.49
69855;BME280;57146;48.140;16.304;2023-02-19T13:37:37;99386.53;;;11.82;62.60
69855;BME280;57146;48.140;16.304;2023-02-19T13:40:26;99384.78;;;11.77;62.87
69855;BME280;57146;48.140;16.304;2023-02-19T13:42:55;99380.09;;;11.65;63.05
69855;BME280;57146;48.140;16.304;2023-02-19T13:45:33;99381.63;;;11.58;63.25
69855;BME280;57146;48.140;16.304;2023-02-19T13:50:41;99383.41;;;11.48;62.80
69855;BME280;57146;48.140;16.304;2023-02-19T14:04:44;99398.38;;;11.08;67.40
69855;BME280;57146;48.140;16.304;2023-02-19T14:14:46;99411.91;;;10.93;68.13
69855;BME280;57146;48.140;16.304;2023-02-19T14:17:40;99435.41;;;10.89;67.33
69855;BME280;57146;48.140;16.304;2023-02-19T14:25:30;99446.22;;;10.88;66.48
69855;BME280;57146;48.140;16.304;2023-02-19T14:28:12;99442.63;;;10.84;66.59
69855;BME280;57146;48.140;16.304;2023-02-19T14:36:34;99470.44;;;10.76;68.20
69855;BME280;57146;48.140;16.304;2023-02-19T14:39:23;99477.97;;;10.55;71.20
69855;BME280;57146;48.140;16.304;2023-02-19T14:41:59;99478.00;;;10.41;71.83
69855;BME280;57146;48.140;16.304;2023-02-19T14:44:30;99485.94;;;10.22;75.19
69855;BME280;57146;48.140;16.304;2023-02-19T14:47:07;99493.53;;;10.10;75.95
69855;BME280;57146;48.140;16.304;2023-02-19T14:52:18;99512.78;;;9.92;77.34
69855;BME280;57146;48.140;16.304;2023-02-19T14:54:57;99510.81;;;9.83;77.26
69855;BME280;57146;48.140;16.304;2023-02-19T14:57:37;99508.66;;;9.72;79.91
69855;BME280;57146;48.140;16.304;2023-02-19T15:02:50;99517.63;;;9.52;81.47
69855;BME280;57146;48.140;16.304;2023-02-19T15:05:23;99505.56;;;9.51;82.36
69855;BME280;57146;48.140;16.304;2023-02-19T15:07:57;99525.59;;;9.47;83.33
69855;BME280;57146;48.140;16.304;2023-02-19T15:10:29;99535.59;;;9.45;83.65
69855;BME280;57146;48.140;16.304;2023-02-19T15:13:07;99528.41;;;9.31;85.23
69855;BME280;57146;48.140;16.304;2023-02-19T15:15:38;99547.66;;;9.27;85.30
69855;BME280;57146;48.140;16.304;2023-02-19T15:18:20;99545.91;;;9.22;85.43
69855;BME280;57146;48.140;16.304;2023-02-19T15:20:50;99548.03;;;9.20;86.46